Time;durP1;ratioP1;P1;durP2;ratioP2;P2;SDS_P1;SDS_P2;PMS_P1;PMS_P2;Temp;Humidity;BMP_temperature;BMP_pressure;BME280_temperature;BME280_humidity;BME280_pressure;Samples;Min_cycle;Max_cycle;Signal;HPM_P1;HPM_P2
2021/09/01 00:01:16;;;;;;;12.00;5.27;;;;;;;;;;5008082;28;20299;-73
2021/09/01 00:03:42;;;;;;;13.50;5.20;;;;;;;;;;5008476;28;20271;-73
2021/09/01 00:06:09;;;;;;;12.07;5.83;;;;;;;;;;5005878;28;20217;-73
2021/09/01 00:08:35;;;;;;;12.47;5.10;;;;;;;;;;5010012;28;20232;-73
2021/09/01 00:11:02;;;;;;;18.47;5.43;;;;;;;;;;5009181;28;20336;-73
2021/09/01 00:13:28;;;;;;;13.47;5.47;;;;;;;;;;5009647;28;20268;-73
2021/09/01 00:15:56;;;;;;;10.83;5.33;;;;;;;;;;5008420;28;20564;-73
2021/09/01 00:18:22;;;;;;;13.43;5.03;;;;;;;;;;5007346;28;20222;-73
2021/09/01 00:20:49;;;;;;;15.67;4.90;;;;;;;;;;5006456;28;20292;-72
2021/09/01 00:23:15;;;;;;;12.27;4.97;;;;;;;;;;5004124;28;20234;-72
2021/09/01 00:25:42;;;;;;;12.53;4.80;;;;;;;;;;5007068;28;20248;-72
2021/09/01 00:28:08;;;;;;;16.10;4.50;;;;;;;;;;5007642;28;20210;-72
2021/09/01 00:30:35;;;;;;;12.50;5.00;;;;;;;;;;5006582;28;20221;-72
2021/09/01 00:33:03;;;;;;;12.13;4.30;;;;;;;;;;5006793;28;20263;-72
2021/09/01 00:35:29;;;;;;;13.37;4.60;;;;;;;;;;5008421;28;20220;-72
2021/09/01 00:37:56;;;;;;;9.63;4.17;;;;;;;;;;5009193;28;20217;-72
2021/09/01 00:40:22;;;;;;;10.23;4.10;;;;;;;;;;5006474;28;20214;-72
2021/09/01 00:42:48;;;;;;;12.10;4.67;;;;;;;;;;5005397;28;20237;-72
2021/09/01 00:45:16;;;;;;;8.93;4.23;;;;;;;;;;5007668;28;20279;-72
2021/09/01 00:47:43;;;;;;;11.03;3.83;;;;;;;;;;5008402;28;20732;-72
2021/09/01 00:50:11;;;;;;;12.53;4.03;;;;;;;;;;5006536;28;20269;-72
2021/09/01 00:52:40;;;;;;;11.53;4.17;;;;;;;;;;5005991;28;20221;-72
2021/09/01 00:55:07;;;;;;;10.40;4.20;;;;;;;;;;5008127;28;20282;-72
2021/09/01 00:57:37;;;;;;;10.60;4.20;;;;;;;;;;5006385;28;20212;-72
2021/09/01 01:00:04;;;;;;;9.40;4.13;;;;;;;;;;5007912;28;20215;-72
2021/09/01 01:02:31;;;;;;;12.73;4.43;;;;;;;;;;5008174;28;20565;-72
2021/09/01 01:04:57;;;;;;;12.00;5.13;;;;;;;;;;5011066;28;20275;-72
2021/09/01 01:07:25;;;;;;;11.37;4.13;;;;;;;;;;5011773;28;20220;-72
2021/09/01 01:09:51;;;;;;;10.77;4.37;;;;;;;;;;5010007;28;20283;-72
2021/09/01 01:12:20;;;;;;;12.07;3.90;;;;;;;;;;5010284;28;20276;-72
2021/09/01 01:14:47;;;;;;;12.93;4.17;;;;;;;;;;5008887;28;20319;-73
2021/09/01 01:17:17;;;;;;;15.23;5.17;;;;;;;;;;5011418;28;20209;-72
2021/09/01 01:19:45;;;;;;;10.83;4.40;;;;;;;;;;5012406;28;20216;-72
2021/09/01 01:22:13;;;;;;;12.30;4.77;;;;;;;;;;5010578;28;20255;-72
2021/09/01 01:24:54;;;;;;;12.33;4.37;;;;;;;;;;5012324;28;20224;-72
2021/09/01 01:27:28;;;;;;;11.17;4.53;;;;;;;;;;5009433;28;20215;-73
2021/09/01 01:29:56;;;;;;;14.70;4.50;;;;;;;;;;5011562;28;20258;-72
2021/09/01 01:32:22;;;;;;;13.23;4.73;;;;;;;;;;5010216;28;20738;-72
2021/09/01 01:34:49;;;;;;;12.53;3.90;;;;;;;;;;5011206;28;20239;-72
2021/09/01 01:37:15;;;;;;;9.63;4.13;;;;;;;;;;5012500;28;20719;-72
2021/09/01 01:39:41;;;;;;;11.93;4.67;;;;;;;;;;5010626;28;21065;-72
2021/09/01 01:42:08;;;;;;;13.57;5.00;;;;;;;;;;5010564;28;20560;-72
2021/09/01 01:44:36;;;;;;;12.20;4.30;;;;;;;;;;5006723;28;20220;-72
2021/09/01 01:47:03;;;;;;;13.30;4.43;;;;;;;;;;5010183;28;20218;-72
2021/09/01 01:49:30;;;;;;;12.27;3.93;;;;;;;;;;5009128;28;20299;-72
2021/09/01 01:51:56;;;;;;;12.40;4.30;;;;;;;;;;5009413;28;20267;-72
2021/09/01 01:54:22;;;;;;;11.80;4.77;;;;;;;;;;5009977;28;20229;-72
2021/09/01 01:56:49;;;;;;;14.43;4.60;;;;;;;;;;5012040;28;20828;-72
2021/09/01 01:59:15;;;;;;;10.37;4.73;;;;;;;;;;5011277;28;20262;-72
2021/09/01 02:01:43;;;;;;;10.13;4.27;;;;;;;;;;5010157;28;20303;-72
2021/09/01 02:04:09;;;;;;;15.60;4.37;;;;;;;;;;5008133;28;20293;-72
2021/09/01 02:06:35;;;;;;;11.00;4.47;;;;;;;;;;5007731;28;20264;-72
2021/09/01 02:09:02;;;;;;;10.50;4.03;;;;;;;;;;5011460;28;20286;-72
2021/09/01 02:11:29;;;;;;;12.10;4.57;;;;;;;;;;5009520;28;20275;-72
2021/09/01 02:13:55;;;;;;;9.43;4.03;;;;;;;;;;5004021;28;20755;-72
2021/09/01 02:16:21;;;;;;;9.00;3.67;;;;;;;;;;5010300;28;20223;-72
2021/09/01 02:18:49;;;;;;;9.27;3.47;;;;;;;;;;5009025;28;20267;-72
2021/09/01 02:21:15;;;;;;;7.53;3.70;;;;;;;;;;5010467;28;20283;-72
2021/09/01 02:23:42;;;;;;;8.80;3.50;;;;;;;;;;5010055;28;20232;-72
2021/09/01 02:26:08;;;;;;;8.93;3.90;;;;;;;;;;5007770;28;20212;-72
2021/09/01 02:28:35;;;;;;;11.33;3.67;;;;;;;;;;5010802;28;20262;-72
2021/09/01 02:31:01;;;;;;;14.77;4.57;;;;;;;;;;5009059;28;20224;-72
2021/09/01 02:33:27;;;;;;;10.53;4.73;;;;;;;;;;5009156;28;20263;-72
2021/09/01 02:35:55;;;;;;;9.00;3.93;;;;;;;;;;5008338;28;20264;-72
2021/09/01 02:38:21;;;;;;;11.80;3.70;;;;;;;;;;5007722;28;20232;-72
2021/09/01 02:40:48;;;;;;;11.60;3.90;;;;;;;;;;5007559;28;20270;-72
2021/09/01 02:43:14;;;;;;;8.23;3.60;;;;;;;;;;5011395;28;20246;-72
2021/09/01 02:45:40;;;;;;;10.90;3.77;;;;;;;;;;5008501;28;20217;-72
2021/09/01 02:48:07;;;;;;;8.33;3.50;;;;;;;;;;5010135;28;20271;-72
2021/09/01 02:50:33;;;;;;;11.10;4.20;;;;;;;;;;5008377;28;20212;-72
2021/09/01 02:53:01;;;;;;;8.00;3.77;;;;;;;;;;5008113;28;20244;-72
2021/09/01 02:55:28;;;;;;;10.13;4.37;;;;;;;;;;5008735;28;20680;-72
2021/09/01 02:57:54;;;;;;;11.93;4.30;;;;;;;;;;5009412;28;20271;-72
2021/09/01 03:00:20;;;;;;;13.33;3.93;;;;;;;;;;5008698;28;20247;-72
2021/09/01 03:02:47;;;;;;;10.97;3.90;;;;;;;;;;5010330;28;20298;-73
2021/09/01 03:05:13;;;;;;;9.20;4.23;;;;;;;;;;5009851;28;20219;-72
2021/09/01 03:07:39;;;;;;;7.13;3.50;;;;;;;;;;5008334;28;20216;-72
2021/09/01 03:10:08;;;;;;;10.17;3.33;;;;;;;;;;5007952;28;20300;-72
2021/09/01 03:12:34;;;;;;;12.87;3.47;;;;;;;;;;5009704;28;20217;-72
2021/09/01 03:15:01;;;;;;;10.90;3.90;;;;;;;;;;5005902;28;20384;-72
2021/09/01 03:17:27;;;;;;;13.47;3.47;;;;;;;;;;5007392;28;20227;-72
2021/09/01 03:19:53;;;;;;;8.50;3.20;;;;;;;;;;5009713;28;20276;-72
2021/09/01 03:22:20;;;;;;;12.07;3.80;;;;;;;;;;5008840;28;20670;-72
2021/09/01 03:24:46;;;;;;;10.63;3.67;;;;;;;;;;5006690;28;20233;-72
2021/09/01 03:27:14;;;;;;;10.03;3.57;;;;;;;;;;5007464;28;20911;-72
2021/09/01 03:29:41;;;;;;;10.63;4.13;;;;;;;;;;5006065;28;20334;-72
2021/09/01 03:32:07;;;;;;;11.50;3.90;;;;;;;;;;5005735;28;20273;-72
2021/09/01 03:34:34;;;;;;;8.60;3.40;;;;;;;;;;5007821;28;20245;-72
2021/09/01 03:37:00;;;;;;;11.03;3.80;;;;;;;;;;5007177;28;20216;-72
2021/09/01 03:39:26;;;;;;;9.97;3.63;;;;;;;;;;5005949;28;20242;-72
2021/09/01 03:41:53;;;;;;;12.57;3.83;;;;;;;;;;5007609;28;20240;-72
2021/09/01 03:44:20;;;;;;;14.37;4.17;;;;;;;;;;5006570;28;20227;-72
2021/09/01 03:46:47;;;;;;;12.03;4.00;;;;;;;;;;5009420;28;20244;-72
2021/09/01 03:49:17;;;;;;;9.67;4.27;;;;;;;;;;5007607;28;20212;-72
2021/09/01 03:51:44;;;;;;;8.87;3.63;;;;;;;;;;5007679;28;20310;-72
2021/09/01 03:54:10;;;;;;;8.20;3.37;;;;;;;;;;5007447;28;20237;-72
2021/09/01 03:56:37;;;;;;;7.90;3.73;;;;;;;;;;5008195;28;20208;-73
2021/09/01 03:59:04;;;;;;;8.33;3.87;;;;;;;;;;5009417;28;20274;-72
2021/09/01 04:01:32;;;;;;;8.23;3.90;;;;;;;;;;5010350;28;20592;-72
2021/09/01 04:03:59;;;;;;;13.67;4.27;;;;;;;;;;5009044;28;20258;-73
2021/09/01 04:06:25;;;;;;;11.27;3.97;;;;;;;;;;5008984;28;21159;-72
2021/09/01 04:08:51;;;;;;;6.93;3.50;;;;;;;;;;5006629;28;20233;-73
2021/09/01 04:11:18;;;;;;;10.83;3.93;;;;;;;;;;5004475;28;20729;-73
2021/09/01 04:13:44;;;;;;;9.13;3.97;;;;;;;;;;5005039;28;20214;-72
2021/09/01 04:16:10;;;;;;;12.37;4.20;;;;;;;;;;5006506;28;21159;-72
2021/09/01 04:18:38;;;;;;;8.23;4.13;;;;;;;;;;5007595;28;20210;-72
2021/09/01 04:21:05;;;;;;;13.03;3.80;;;;;;;;;;5007979;28;20268;-72
2021/09/01 04:23:32;;;;;;;11.33;3.87;;;;;;;;;;5009870;28;20242;-72
2021/09/01 04:25:59;;;;;;;17.87;4.60;;;;;;;;;;5005388;28;20225;-72
2021/09/01 04:28:25;;;;;;;13.53;4.00;;;;;;;;;;5007932;28;20207;-72
2021/09/01 04:30:52;;;;;;;13.10;4.65;;;;;;;;;;5008392;28;20440;-72
2021/09/01 04:33:18;;;;;;;14.87;4.30;;;;;;;;;;5006191;28;20229;-72
2021/09/01 04:35:46;;;;;;;12.80;3.77;;;;;;;;;;5006454;28;20259;-72
2021/09/01 04:38:12;;;;;;;11.43;4.50;;;;;;;;;;5009699;28;20759;-72
2021/09/01 04:40:39;;;;;;;10.33;4.13;;;;;;;;;;5011282;28;20222;-72
2021/09/01 04:43:05;;;;;;;14.13;4.67;;;;;;;;;;5013670;28;20240;-72
2021/09/01 04:45:32;;;;;;;19.33;4.53;;;;;;;;;;5008453;28;20280;-72
2021/09/01 04:47:58;;;;;;;11.37;3.60;;;;;;;;;;5009050;28;20272;-72
2021/09/01 04:50:24;;;;;;;14.57;4.73;;;;;;;;;;5008308;28;20225;-72
2021/09/01 04:52:52;;;;;;;15.13;4.07;;;;;;;;;;5009860;28;20669;-72
2021/09/01 04:55:19;;;;;;;12.33;4.20;;;;;;;;;;5008353;28;20683;-72
2021/09/01 04:57:46;;;;;;;9.93;3.80;;;;;;;;;;5009755;28;20305;-72
2021/09/01 05:00:13;;;;;;;15.77;4.70;;;;;;;;;;5008093;28;20215;-72
2021/09/01 05:02:39;;;;;;;12.43;3.83;;;;;;;;;;5008363;28;20229;-72
2021/09/01 05:05:07;;;;;;;34.60;5.77;;;;;;;;;;5007816;28;20219;-72
2021/09/01 05:07:33;;;;;;;13.97;4.50;;;;;;;;;;5009172;28;20765;-72
2021/09/01 05:10:01;;;;;;;13.90;4.40;;;;;;;;;;5011298;28;20233;-72
2021/09/01 05:12:28;;;;;;;9.87;4.30;;;;;;;;;;5007415;28;20215;-72
2021/09/01 05:14:54;;;;;;;9.03;3.73;;;;;;;;;;5009718;28;20239;-72
2021/09/01 05:17:21;;;;;;;9.30;3.83;;;;;;;;;;5008057;28;20283;-72
2021/09/01 05:19:47;;;;;;;12.40;3.87;;;;;;;;;;5008497;28;20224;-72
2021/09/01 05:22:17;;;;;;;12.00;4.23;;;;;;;;;;5009642;28;20795;-72
2021/09/01 05:24:51;;;;;;;12.33;4.50;;;;;;;;;;5010473;28;20231;-72
2021/09/01 05:27:21;;;;;;;9.37;4.30;;;;;;;;;;5009655;28;20767;-72
2021/09/01 05:29:49;;;;;;;10.37;4.07;;;;;;;;;;5008065;28;20236;-72
2021/09/01 05:32:19;;;;;;;14.20;4.50;;;;;;;;;;5007726;28;20218;-72
2021/09/01 05:34:48;;;;;;;8.23;4.60;;;;;;;;;;5010471;28;20217;-72
2021/09/01 05:37:15;;;;;;;12.17;4.17;;;;;;;;;;5006212;28;20223;-72
2021/09/01 05:39:43;;;;;;;10.63;3.93;;;;;;;;;;5008870;28;20280;-72
2021/09/01 05:42:11;;;;;;;11.30;3.80;;;;;;;;;;5009235;28;20444;-71
2021/09/01 05:44:39;;;;;;;10.10;4.20;;;;;;;;;;5009334;28;20219;-72
2021/09/01 05:47:07;;;;;;;7.40;3.83;;;;;;;;;;5007659;28;20276;-72
2021/09/01 05:49:35;;;;;;;10.47;4.07;;;;;;;;;;5008243;28;20226;-72
2021/09/01 05:52:02;;;;;;;11.47;3.57;;;;;;;;;;5005913;28;20218;-72
2021/09/01 05:54:29;;;;;;;11.27;4.07;;;;;;;;;;5008263;28;20777;-72
2021/09/01 05:57:03;;;;;;;9.70;3.83;;;;;;;;;;5007979;28;20219;-72
2021/09/01 05:59:30;;;;;;;12.33;4.17;;;;;;;;;;5010778;28;20437;-72
2021/09/01 06:02:04;;;;;;;9.50;3.40;;;;;;;;;;5008148;28;20308;-72
2021/09/01 06:04:35;;;;;;;10.67;4.10;;;;;;;;;;5007711;28;20323;-72
2021/09/01 06:07:03;;;;;;;13.53;4.37;;;;;;;;;;5007820;28;20219;-72
2021/09/01 06:09:34;;;;;;;9.77;3.57;;;;;;;;;;5007602;28;20240;-72
2021/09/01 06:12:04;;;;;;;8.73;4.00;;;;;;;;;;5007083;28;20262;-72
2021/09/01 06:14:31;;;;;;;11.73;3.83;;;;;;;;;;5009068;28;20336;-72
2021/09/01 06:16:58;;;;;;;8.27;3.90;;;;;;;;;;5007347;28;20217;-72
2021/09/01 06:19:25;;;;;;;13.17;4.17;;;;;;;;;;5006476;28;20241;-72
2021/09/01 06:21:51;;;;;;;9.60;4.10;;;;;;;;;;5007471;28;20266;-72
2021/09/01 06:24:17;;;;;;;8.73;3.87;;;;;;;;;;5009870;28;20246;-72
2021/09/01 06:26:44;;;;;;;11.63;4.23;;;;;;;;;;5008290;28;21131;-72
2021/09/01 06:29:10;;;;;;;9.77;4.03;;;;;;;;;;5008868;28;20643;-72
2021/09/01 06:31:39;;;;;;;11.27;3.93;;;;;;;;;;5008290;28;20606;-72
2021/09/01 06:34:07;;;;;;;10.47;4.23;;;;;;;;;;5009359;28;20229;-72
2021/09/01 06:36:33;;;;;;;9.43;3.80;;;;;;;;;;5009315;28;20246;-72
2021/09/01 06:38:59;;;;;;;11.60;3.77;;;;;;;;;;5008751;28;20278;-72
2021/09/01 06:41:26;;;;;;;6.90;4.10;;;;;;;;;;5007186;28;20323;-72
2021/09/01 06:43:52;;;;;;;9.33;3.90;;;;;;;;;;5006000;28;20245;-72
2021/09/01 06:46:18;;;;;;;10.90;4.10;;;;;;;;;;5007917;28;20254;-73
2021/09/01 06:48:45;;;;;;;8.63;3.73;;;;;;;;;;5007824;28;20687;-72
2021/09/01 06:51:12;;;;;;;10.27;4.17;;;;;;;;;;5006938;28;20285;-72
2021/09/01 06:53:39;;;;;;;8.53;3.50;;;;;;;;;;5009029;28;20242;-72
2021/09/01 06:56:05;;;;;;;10.77;3.60;;;;;;;;;;5008615;28;20238;-72
2021/09/01 06:58:32;;;;;;;8.87;3.50;;;;;;;;;;5006458;28;20687;-72
2021/09/01 07:00:58;;;;;;;7.50;4.03;;;;;;;;;;5005283;28;20340;-72
2021/09/01 07:03:24;;;;;;;13.40;3.80;;;;;;;;;;5008365;28;20243;-72
2021/09/01 07:05:51;;;;;;;9.70;3.70;;;;;;;;;;5008892;28;20307;-72
2021/09/01 07:08:21;;;;;;;11.07;4.07;;;;;;;;;;5005858;28;20291;-72
2021/09/01 07:10:47;;;;;;;10.57;4.27;;;;;;;;;;5006059;28;20215;-72
2021/09/01 07:13:14;;;;;;;10.70;4.23;;;;;;;;;;5007389;28;20213;-72
2021/09/01 07:15:41;;;;;;;11.00;4.57;;;;;;;;;;5006068;28;20631;-72
2021/09/01 07:18:08;;;;;;;8.00;4.17;;;;;;;;;;5006645;28;20222;-72
2021/09/01 07:20:35;;;;;;;11.63;3.97;;;;;;;;;;5003345;28;20213;-72
2021/09/01 07:23:01;;;;;;;13.60;4.43;;;;;;;;;;5005613;28;20638;-72
2021/09/01 07:25:29;;;;;;;11.27;4.00;;;;;;;;;;5008598;28;20262;-72
2021/09/01 07:27:55;;;;;;;12.63;4.43;;;;;;;;;;5004228;28;20219;-72
2021/09/01 07:30:22;;;;;;;9.93;4.00;;;;;;;;;;5006736;28;20219;-73
2021/09/01 07:32:48;;;;;;;10.80;4.17;;;;;;;;;;5005198;28;20366;-72
2021/09/01 07:35:14;;;;;;;8.90;3.60;;;;;;;;;;5005664;28;20222;-72
2021/09/01 07:37:44;;;;;;;12.83;4.50;;;;;;;;;;5006119;28;20273;-72
2021/09/01 07:40:12;;;;;;;10.70;3.93;;;;;;;;;;5001539;28;20231;-72
2021/09/01 07:42:40;;;;;;;11.37;4.07;;;;;;;;;;5005679;28;20218;-72
2021/09/01 07:45:07;;;;;;;11.53;3.80;;;;;;;;;;5008115;28;20705;-71
2021/09/01 07:47:34;;;;;;;9.17;3.70;;;;;;;;;;5006873;28;20220;-72
2021/09/01 07:50:00;;;;;;;9.90;3.90;;;;;;;;;;5007504;28;20696;-72
2021/09/01 07:52:26;;;;;;;12.43;4.33;;;;;;;;;;5009104;28;20789;-71
2021/09/01 07:54:53;;;;;;;11.30;3.87;;;;;;;;;;5006344;28;20237;-71
2021/09/01 07:57:19;;;;;;;10.30;3.40;;;;;;;;;;5006581;28;20222;-72
2021/09/01 07:59:47;;;;;;;8.17;4.03;;;;;;;;;;5005835;28;20258;-72
2021/09/01 08:02:13;;;;;;;11.43;3.60;;;;;;;;;;5003086;28;20247;-72
2021/09/01 08:04:40;;;;;;;9.07;3.50;;;;;;;;;;5007071;28;20296;-72
2021/09/01 08:07:06;;;;;;;7.23;2.73;;;;;;;;;;5007743;28;20688;-71
2021/09/01 08:09:33;;;;;;;9.63;3.20;;;;;;;;;;5006817;28;20265;-71
2021/09/01 08:11:59;;;;;;;8.53;3.37;;;;;;;;;;5009317;28;20835;-72
2021/09/01 08:14:26;;;;;;;5.70;3.33;;;;;;;;;;5011303;28;20235;-72
2021/09/01 08:16:53;;;;;;;7.03;3.03;;;;;;;;;;5009037;28;20619;-72
2021/09/01 08:19:20;;;;;;;8.90;2.90;;;;;;;;;;5011179;28;20623;-71
2021/09/01 08:21:46;;;;;;;7.67;3.00;;;;;;;;;;5014037;28;20285;-72
2021/09/01 08:24:12;;;;;;;6.20;2.97;;;;;;;;;;5012209;28;20310;-72
2021/09/01 08:26:39;;;;;;;7.93;2.90;;;;;;;;;;5007781;28;20269;-72
2021/09/01 08:29:05;;;;;;;5.50;2.67;;;;;;;;;;5011758;28;20259;-71
2021/09/01 08:31:32;;;;;;;7.70;2.80;;;;;;;;;;5011951;28;20686;-71
2021/09/01 08:33:59;;;;;;;8.57;3.30;;;;;;;;;;5009848;28;20219;-74
2021/09/01 08:36:26;;;;;;;8.17;3.00;;;;;;;;;;5012848;28;20218;-72
2021/09/01 08:38:53;;;;;;;9.03;3.40;;;;;;;;;;5012033;28;20224;-72
2021/09/01 08:41:19;;;;;;;9.43;3.60;;;;;;;;;;5009997;28;20215;-73
2021/09/01 08:43:47;;;;;;;6.10;3.13;;;;;;;;;;5012098;28;20686;-71
2021/09/01 08:46:13;;;;;;;9.80;3.50;;;;;;;;;;5009141;28;20208;-72
2021/09/01 08:48:41;;;;;;;8.03;3.10;;;;;;;;;;5009450;28;20217;-74
2021/09/01 08:51:09;;;;;;;19.87;4.17;;;;;;;;;;5010595;28;20220;-72
2021/09/01 08:53:36;;;;;;;8.13;3.67;;;;;;;;;;5009551;28;20575;-72
2021/09/01 08:56:03;;;;;;;10.93;3.50;;;;;;;;;;5009988;28;20222;-72
2021/09/01 08:58:29;;;;;;;6.73;3.53;;;;;;;;;;5008961;28;20223;-72
2021/09/01 09:00:55;;;;;;;8.33;3.80;;;;;;;;;;5009065;28;20247;-72
2021/09/01 09:03:22;;;;;;;9.53;3.97;;;;;;;;;;5011337;28;20224;-72
2021/09/01 09:05:48;;;;;;;6.27;3.50;;;;;;;;;;5008282;28;20247;-72
2021/09/01 09:08:16;;;;;;;9.70;3.67;;;;;;;;;;5009506;28;20239;-72
2021/09/01 09:10:44;;;;;;;13.30;3.73;;;;;;;;;;5010381;28;20415;-73
2021/09/01 09:13:12;;;;;;;9.13;3.53;;;;;;;;;;5008704;28;20623;-72
2021/09/01 09:15:40;;;;;;;9.40;3.10;;;;;;;;;;5008768;28;20698;-73
2021/09/01 09:18:26;;;;;;;7.03;2.87;;;;;;;;;;5007193;28;20267;-73
2021/09/01 09:21:08;;;;;;;7.37;3.47;;;;;;;;;;5008161;28;20367;-73
2021/09/01 09:23:36;;;;;;;7.13;2.77;;;;;;;;;;5008418;28;20231;-73
2021/09/01 09:26:19;;;;;;;7.30;2.60;;;;;;;;;;5009144;28;20239;-73
2021/09/01 09:28:46;;;;;;;4.97;2.70;;;;;;;;;;5007637;28;20201;-73
2021/09/01 09:31:12;;;;;;;5.20;2.43;;;;;;;;;;5007502;28;20273;-73
2021/09/01 09:33:40;;;;;;;3.90;2.40;;;;;;;;;;5009644;28;20286;-73
2021/09/01 09:36:08;;;;;;;6.73;2.40;;;;;;;;;;5006817;28;20228;-73
2021/09/01 09:38:39;;;;;;;5.97;2.00;;;;;;;;;;5008001;28;20234;-73
2021/09/01 09:41:19;;;;;;;4.20;2.30;;;;;;;;;;5008668;28;20303;-73
2021/09/01 09:43:46;;;;;;;3.73;1.97;;;;;;;;;;5006030;28;21233;-74
2021/09/01 09:46:12;;;;;;;5.83;2.63;;;;;;;;;;5008772;28;20215;-74
2021/09/01 09:48:41;;;;;;;5.43;2.40;;;;;;;;;;5008702;28;20246;-74
2021/09/01 09:51:09;;;;;;;3.00;1.90;;;;;;;;;;5009548;28;20217;-74
2021/09/01 09:53:39;;;;;;;6.07;2.37;;;;;;;;;;5007761;28;20237;-74
2021/09/01 09:56:08;;;;;;;5.07;2.13;;;;;;;;;;5008578;28;20353;-73
2021/09/01 09:58:38;;;;;;;3.47;2.00;;;;;;;;;;5007632;28;20282;-74
2021/09/01 10:01:06;;;;;;;4.17;2.00;;;;;;;;;;5006640;28;20613;-73
2021/09/01 10:03:33;;;;;;;3.80;2.07;;;;;;;;;;5011162;28;20223;-73
2021/09/01 10:06:01;;;;;;;6.63;2.33;;;;;;;;;;5007972;28;20321;-73
2021/09/01 10:08:28;;;;;;;4.70;2.17;;;;;;;;;;5010399;28;20232;-73
2021/09/01 10:10:57;;;;;;;5.70;2.23;;;;;;;;;;5004553;28;20217;-73
2021/09/01 10:13:25;;;;;;;7.27;2.63;;;;;;;;;;5007515;28;20224;-73
2021/09/01 10:15:56;;;;;;;3.33;2.13;;;;;;;;;;5007068;28;20903;-73
2021/09/01 10:18:23;;;;;;;7.33;2.70;;;;;;;;;;5007861;28;20259;-73
2021/09/01 10:20:50;;;;;;;7.00;2.77;;;;;;;;;;5008533;28;20276;-73
2021/09/01 10:23:16;;;;;;;5.67;2.70;;;;;;;;;;5010993;28;20307;-73
2021/09/01 10:25:45;;;;;;;6.73;2.47;;;;;;;;;;5007396;28;20231;-73
2021/09/01 10:28:34;;;;;;;6.30;3.30;;;;;;;;;;5006402;28;20945;-73
2021/09/01 10:31:23;;;;;;;14.10;3.07;;;;;;;;;;5008199;28;20211;-73
2021/09/01 10:33:52;;;;;;;6.97;3.10;;;;;;;;;;5008368;28;20701;-73
2021/09/01 10:36:38;;;;;;;10.10;3.03;;;;;;;;;;5008214;28;20292;-73
2021/09/01 10:39:40;;;;;;;6.03;2.63;;;;;;;;;;5008574;28;20227;-73
2021/09/01 10:42:37;;;;;;;6.40;2.97;;;;;;;;;;5007599;28;20218;-73
2021/09/01 10:45:09;;;;;;;7.70;3.23;;;;;;;;;;5005970;28;20226;-73
2021/09/01 10:48:04;;;;;;;26.87;4.53;;;;;;;;;;5006713;28;20214;-73
2021/09/01 10:50:32;;;;;;;10.80;3.33;;;;;;;;;;5007707;28;20596;-73
2021/09/01 10:53:02;;;;;;;8.50;3.23;;;;;;;;;;5007244;28;20316;-73
2021/09/01 10:55:29;;;;;;;14.57;3.23;;;;;;;;;;5006907;28;20305;-73
2021/09/01 10:58:15;;;;;;;5.17;2.60;;;;;;;;;;5006982;28;20244;-73
2021/09/01 11:00:44;;;;;;;9.80;2.70;;;;;;;;;;5008497;28;20247;-73
2021/09/01 11:03:10;;;;;;;7.30;2.83;;;;;;;;;;5005479;28;20578;-73
2021/09/01 11:05:37;;;;;;;9.47;3.30;;;;;;;;;;5008425;28;20235;-73
2021/09/01 11:08:03;;;;;;;11.23;3.10;;;;;;;;;;5008342;28;20623;-73
2021/09/01 11:10:30;;;;;;;6.33;2.53;;;;;;;;;;5005478;28;20652;-73
2021/09/01 11:12:58;;;;;;;7.40;3.27;;;;;;;;;;5004516;28;20620;-73
2021/09/01 11:15:24;;;;;;;8.23;3.83;;;;;;;;;;5007701;28;20267;-73
2021/09/01 11:17:52;;;;;;;8.93;3.30;;;;;;;;;;5006940;28;20707;-73
2021/09/01 11:20:21;;;;;;;4.77;2.60;;;;;;;;;;5008622;28;20271;-73
2021/09/01 11:22:47;;;;;;;4.20;2.90;;;;;;;;;;5009264;28;20209;-73
2021/09/01 11:25:15;;;;;;;9.07;3.53;;;;;;;;;;5008296;28;20237;-73
2021/09/01 11:27:47;;;;;;;6.10;3.20;;;;;;;;;;5006756;28;20270;-72
2021/09/01 11:30:15;;;;;;;7.33;2.77;;;;;;;;;;5010402;28;20241;-72
2021/09/01 11:32:43;;;;;;;5.87;3.07;;;;;;;;;;5007579;28;20221;-72
2021/09/01 11:35:14;;;;;;;6.50;3.50;;;;;;;;;;5008130;28;20223;-72
2021/09/01 11:37:41;;;;;;;7.47;2.50;;;;;;;;;;5008665;28;20212;-72
2021/09/01 11:40:08;;;;;;;5.93;2.53;;;;;;;;;;5007928;28;20233;-72
2021/09/01 11:42:36;;;;;;;6.93;3.27;;;;;;;;;;5008191;28;20265;-72
2021/09/01 11:45:03;;;;;;;6.97;2.90;;;;;;;;;;5006403;28;20244;-72
2021/09/01 11:47:30;;;;;;;4.60;2.77;;;;;;;;;;5007549;28;20212;-72
2021/09/01 11:49:57;;;;;;;5.73;2.90;;;;;;;;;;5007257;28;20265;-72
2021/09/01 11:52:29;;;;;;;4.77;2.57;;;;;;;;;;5007413;28;21269;-72
2021/09/01 11:54:56;;;;;;;5.37;2.93;;;;;;;;;;5006012;28;20224;-72
2021/09/01 11:57:26;;;;;;;6.93;3.10;;;;;;;;;;5007223;28;20216;-71
2021/09/01 11:59:52;;;;;;;7.03;3.17;;;;;;;;;;5005501;28;20235;-71
2021/09/01 12:02:22;;;;;;;6.30;3.30;;;;;;;;;;5006660;28;20291;-72
2021/09/01 12:04:48;;;;;;;6.90;3.10;;;;;;;;;;5006614;28;20234;-71
2021/09/01 12:07:24;;;;;;;7.10;3.50;;;;;;;;;;5005742;28;20213;-72
2021/09/01 12:09:54;;;;;;;7.37;2.80;;;;;;;;;;5005247;28;20232;-71
2021/09/01 12:12:21;;;;;;;7.53;3.70;;;;;;;;;;5009009;28;20213;-72
2021/09/01 12:14:47;;;;;;;7.40;3.60;;;;;;;;;;5006285;28;20235;-71
2021/09/01 12:17:17;;;;;;;9.03;3.13;;;;;;;;;;5002847;28;20707;-71
2021/09/01 12:19:45;;;;;;;6.63;3.40;;;;;;;;;;5004466;28;20278;-72
2021/09/01 12:22:12;;;;;;;11.00;3.43;;;;;;;;;;5005515;28;20215;-71
2021/09/01 12:24:38;;;;;;;6.90;3.10;;;;;;;;;;5008289;28;20300;-72
2021/09/01 12:27:10;;;;;;;6.67;2.73;;;;;;;;;;5005888;28;20676;-72
2021/09/01 12:29:38;;;;;;;8.40;2.67;;;;;;;;;;5006152;28;20211;-72
2021/09/01 12:32:08;;;;;;;10.03;3.73;;;;;;;;;;5008469;28;20223;-72
2021/09/01 12:34:38;;;;;;;7.60;3.10;;;;;;;;;;5008425;28;20218;-72
2021/09/01 12:37:08;;;;;;;4.57;2.80;;;;;;;;;;5008939;28;20312;-72
2021/09/01 12:39:43;;;;;;;5.93;3.20;;;;;;;;;;5008249;28;20239;-71
2021/09/01 12:42:24;;;;;;;6.57;3.00;;;;;;;;;;5007211;28;20609;-72
2021/09/01 12:44:52;;;;;;;5.13;3.20;;;;;;;;;;5007696;28;20220;-72
2021/09/01 12:47:19;;;;;;;9.57;3.30;;;;;;;;;;5005927;28;20278;-72
2021/09/01 12:49:47;;;;;;;6.07;3.00;;;;;;;;;;5003090;28;20794;-71
2021/09/01 12:52:14;;;;;;;8.63;3.83;;;;;;;;;;5005580;28;20273;-72
2021/09/01 12:54:41;;;;;;;6.50;3.30;;;;;;;;;;5004969;28;20235;-72
2021/09/01 12:57:08;;;;;;;6.60;3.23;;;;;;;;;;5005770;28;20212;-72
2021/09/01 12:59:35;;;;;;;8.13;3.10;;;;;;;;;;5009295;28;20278;-71
2021/09/01 13:02:03;;;;;;;8.33;4.13;;;;;;;;;;5010135;28;20259;-71
2021/09/01 13:04:29;;;;;;;11.20;4.77;;;;;;;;;;5009792;28;20219;-71
2021/09/01 13:06:55;;;;;;;7.77;4.00;;;;;;;;;;5009509;28;20222;-71
2021/09/01 13:09:22;;;;;;;7.67;4.00;;;;;;;;;;5010887;28;20224;-71
2021/09/01 13:11:48;;;;;;;7.63;4.00;;;;;;;;;;5008216;28;20217;-71
2021/09/01 13:14:15;;;;;;;10.93;4.70;;;;;;;;;;5008637;28;20711;-72
2021/09/01 13:16:44;;;;;;;12.40;5.10;;;;;;;;;;5009543;28;20245;-71
2021/09/01 13:19:10;;;;;;;12.93;5.90;;;;;;;;;;5008459;28;20336;-71
2021/09/01 13:21:37;;;;;;;11.43;5.07;;;;;;;;;;5008793;28;20270;-72
2021/09/01 13:24:04;;;;;;;11.33;5.57;;;;;;;;;;5010199;28;20238;-71
2021/09/01 13:26:30;;;;;;;11.33;5.70;;;;;;;;;;5008490;28;20718;-72
2021/09/01 13:28:56;;;;;;;10.80;5.43;;;;;;;;;;5009388;28;20265;-71
2021/09/01 13:31:23;;;;;;;12.47;6.27;;;;;;;;;;5007434;28;20495;-71
2021/09/01 13:33:51;;;;;;;14.93;6.20;;;;;;;;;;5007061;28;20242;-72
2021/09/01 13:36:17;;;;;;;12.13;6.40;;;;;;;;;;5010808;28;20266;-72
2021/09/01 13:38:43;;;;;;;8.47;5.33;;;;;;;;;;5007334;28;20235;-72
2021/09/01 13:41:11;;;;;;;11.20;6.20;;;;;;;;;;5008701;28;20730;-72
2021/09/01 13:43:37;;;;;;;8.77;6.33;;;;;;;;;;5007935;28;20297;-72
2021/09/01 13:46:04;;;;;;;15.40;6.60;;;;;;;;;;5009125;28;20333;-72
2021/09/01 13:48:30;;;;;;;10.13;6.33;;;;;;;;;;5010459;28;20261;-72
2021/09/01 13:50:58;;;;;;;11.20;6.73;;;;;;;;;;5010447;28;20272;-72
2021/09/01 13:53:24;;;;;;;12.23;7.67;;;;;;;;;;5010848;28;20618;-72
2021/09/01 13:55:51;;;;;;;8.70;7.17;;;;;;;;;;5007441;28;20673;-72
2021/09/01 13:58:17;;;;;;;11.07;7.77;;;;;;;;;;5006880;28;20662;-72
2021/09/01 14:00:44;;;;;;;11.57;8.07;;;;;;;;;;5008560;28;20820;-71
2021/09/01 14:03:12;;;;;;;13.67;7.60;;;;;;;;;;5008543;28;20276;-74
2021/09/01 14:05:39;;;;;;;9.63;8.07;;;;;;;;;;5006766;28;20241;-71
2021/09/01 14:08:07;;;;;;;9.27;7.60;;;;;;;;;;5005632;28;20284;-72
2021/09/01 14:10:33;;;;;;;11.17;7.60;;;;;;;;;;5007395;28;20604;-72
2021/09/01 14:13:00;;;;;;;12.93;8.40;;;;;;;;;;5007182;28;20270;-72
2021/09/01 14:15:26;;;;;;;10.40;7.93;;;;;;;;;;5008097;28;20311;-72
2021/09/01 14:17:53;;;;;;;13.73;7.53;;;;;;;;;;5008512;28;20354;-72
2021/09/01 14:20:19;;;;;;;9.57;8.50;;;;;;;;;;5010128;28;20548;-72
2021/09/01 14:22:46;;;;;;;12.30;8.67;;;;;;;;;;5008570;28;20215;-72
2021/09/01 14:25:14;;;;;;;11.50;8.40;;;;;;;;;;5007788;28;20276;-72
2021/09/01 14:27:41;;;;;;;10.47;8.87;;;;;;;;;;5006927;28;20221;-72
2021/09/01 14:30:12;;;;;;;18.17;9.20;;;;;;;;;;5009252;28;20215;-72
2021/09/01 14:32:39;;;;;;;11.13;8.63;;;;;;;;;;5005426;28;20213;-71
2021/09/01 14:35:06;;;;;;;13.10;8.50;;;;;;;;;;5007552;28;20255;-71
2021/09/01 14:37:32;;;;;;;13.80;8.67;;;;;;;;;;5007834;28;20220;-71
2021/09/01 14:39:59;;;;;;;11.37;9.00;;;;;;;;;;5010075;28;20693;-71